createdAt,value
2019-05-14T00:02:21.862Z,41.48
2019-05-14T00:04:52.025Z,41.47
2019-05-14T00:07:24.319Z,41.51
2019-05-14T00:09:54.019Z,41.29
2019-05-14T00:12:23.558Z,41.46
2019-05-14T00:14:54.065Z,41.35
2019-05-14T00:17:26.267Z,41.44
2019-05-14T00:20:06.493Z,41.28
2019-05-14T00:22:32.015Z,42.08
2019-05-14T00:25:08.432Z,42.06
2019-05-14T00:27:38.596Z,42.61
2019-05-14T00:30:13.450Z,42.77
2019-05-14T00:32:43.856Z,42.85
2019-05-14T00:35:35.706Z,43.29
2019-05-14T00:38:06.207Z,43.39
2019-05-14T00:40:35.706Z,43.86
2019-05-14T00:43:13.625Z,44.09
2019-05-14T00:45:57.719Z,44.54
2019-05-14T00:48:27.626Z,44.89
2019-05-14T00:50:57.772Z,45.41
2019-05-14T00:53:27.462Z,45.97
2019-05-14T00:55:56.951Z,46.48
2019-05-14T00:58:26.419Z,46.82
2019-05-14T01:00:55.974Z,47.45
2019-05-14T01:03:25.708Z,47.58
2019-05-14T01:05:55.428Z,48.29
2019-05-14T01:08:25.018Z,48.77
2019-05-14T01:10:54.611Z,49.34
2019-05-14T01:13:24.753Z,49.25
2019-05-14T01:15:54.237Z,49.31
2019-05-14T01:18:26.428Z,49.77
2019-05-14T01:20:55.267Z,49.94
2019-05-14T01:23:24.889Z,50.00
2019-05-14T01:25:55.720Z,50.27
2019-05-14T01:28:25.580Z,51.08
2019-05-14T01:30:55.260Z,51.18
2019-05-14T01:33:24.837Z,51.58
2019-05-14T01:35:54.715Z,51.98
2019-05-14T01:38:24.572Z,52.48
2019-05-14T01:40:54.148Z,52.55
2019-05-14T01:43:24.754Z,52.73
2019-05-14T01:45:55.576Z,53.02
2019-05-14T01:48:25.068Z,53.40
2019-05-14T01:50:54.600Z,53.81
2019-05-14T01:53:24.027Z,54.11
2019-05-14T01:55:54.289Z,54.27
2019-05-14T01:58:23.989Z,54.54
2019-05-14T02:00:53.643Z,54.73
2019-05-14T02:03:23.250Z,54.75
2019-05-14T02:05:52.739Z,55.27
2019-05-14T02:08:22.495Z,55.13
2019-05-14T02:10:52.704Z,55.64
2019-05-14T02:13:22.354Z,55.44
2019-05-14T02:15:52.237Z,56.12
2019-05-14T02:18:22.587Z,56.39
2019-05-14T02:20:52.657Z,56.67
2019-05-14T02:23:22.941Z,56.92
2019-05-14T02:25:54.635Z,57.14
2019-05-14T02:28:25.733Z,57.47
2019-05-14T02:30:59.025Z,57.26
2019-05-14T02:33:30.304Z,57.97
2019-05-14T02:35:59.963Z,57.82
2019-05-14T02:38:30.380Z,58.07
2019-05-14T02:41:00.319Z,58.41
2019-05-14T02:43:29.953Z,58.98
2019-05-14T02:46:11.488Z,58.84
2019-05-14T02:48:34.568Z,59.37
2019-05-14T02:51:04.063Z,59.26
2019-05-14T02:53:33.583Z,58.93
2019-05-14T02:56:03.218Z,58.99
2019-05-14T02:58:33.035Z,58.80
2019-05-14T03:01:02.717Z,58.84
2019-05-14T03:03:32.353Z,59.32
2019-05-14T03:06:02.305Z,59.37
2019-05-14T03:08:32.898Z,59.86
2019-05-14T03:11:03.208Z,60.43
2019-05-14T03:13:32.716Z,60.38
2019-05-14T03:16:20.709Z,60.94
2019-05-14T03:18:34.013Z,61.08
2019-05-14T03:21:05.755Z,61.78
2019-05-14T03:23:39.295Z,62.09
2019-05-14T03:26:09.869Z,62.18
2019-05-14T03:28:40.249Z,62.74
2019-05-14T03:31:13.108Z,62.25
2019-05-14T03:33:44.274Z,62.23
2019-05-14T03:36:17.828Z,62.52
2019-05-14T03:38:45.619Z,62.53
2019-05-14T03:41:15.640Z,61.56
2019-05-14T03:43:45.510Z,61.44
2019-05-14T03:46:16.231Z,61.17
2019-05-14T03:48:49.124Z,60.16
2019-05-14T03:51:20.413Z,58.83
2019-05-14T03:54:01.352Z,58.12
2019-05-14T03:56:21.869Z,58.47
2019-05-14T03:58:51.381Z,57.79
2019-05-14T04:01:22.656Z,56.51
2019-05-14T04:03:52.651Z,55.97
2019-05-14T04:06:23.592Z,55.10
2019-05-14T04:08:54.076Z,54.31
2019-05-14T04:11:24.236Z,54.33
2019-05-14T04:14:00.155Z,53.42
2019-05-14T04:16:34.924Z,52.73
2019-05-14T04:19:05.845Z,52.52
2019-05-14T04:21:39.822Z,51.88
2019-05-14T04:24:10.399Z,51.83
2019-05-14T04:26:56.193Z,51.19
2019-05-14T04:29:19.669Z,50.85
2019-05-14T04:32:00.171Z,50.11
2019-05-14T04:34:30.943Z,49.29
2019-05-14T04:37:01.623Z,48.51
2019-05-14T04:39:31.999Z,49.62
2019-05-14T04:42:02.732Z,48.97
2019-05-14T04:44:32.847Z,48.88
2019-05-14T04:47:21.770Z,47.23
2019-05-14T04:49:33.560Z,50.14
2019-05-14T04:52:03.765Z,51.36
2019-05-14T04:54:33.552Z,50.57
2019-05-14T04:57:04.661Z,49.95
2019-05-14T04:59:39.984Z,49.00
2019-05-14T05:02:10.024Z,48.50
2019-05-14T05:04:41.466Z,49.18
2019-05-14T05:07:12.646Z,48.59
2019-05-14T05:09:42.376Z,47.28
2019-05-14T05:12:12.152Z,48.44
2019-05-14T05:14:41.789Z,48.55
2019-05-14T05:17:11.333Z,50.15
2019-05-14T05:19:45.453Z,51.13
2019-05-14T05:22:14.832Z,52.09
2019-05-14T05:24:44.804Z,52.81
2019-05-14T05:27:14.424Z,52.92
2019-05-14T05:29:44.092Z,54.27
2019-05-14T05:32:13.785Z,54.11
2019-05-14T05:34:43.296Z,53.30
2019-05-14T05:37:14.193Z,53.58
2019-05-14T05:39:44.086Z,53.22
2019-05-14T05:42:13.650Z,51.61
2019-05-14T05:44:43.409Z,51.02
2019-05-14T05:47:12.997Z,51.59
2019-05-14T05:49:42.673Z,52.23
2019-05-14T05:52:12.637Z,52.26
2019-05-14T05:54:42.234Z,52.70
2019-05-14T05:57:12.485Z,52.43
2019-05-14T06:00:21.539Z,50.61
2019-05-14T06:02:51.198Z,50.77
2019-05-14T06:05:20.962Z,50.12
2019-05-14T06:07:50.252Z,49.98
2019-05-14T06:10:20.138Z,50.21
2019-05-14T06:12:51.141Z,48.87
2019-05-14T06:15:20.915Z,46.45
2019-05-14T06:17:50.303Z,42.02
2019-05-14T06:20:20.047Z,42.34
2019-05-14T06:22:49.873Z,42.88
2019-05-14T06:25:21.087Z,42.23
2019-05-14T06:27:51.293Z,40.30
2019-05-14T06:30:33.889Z,41.80
2019-05-14T06:33:03.792Z,42.63
2019-05-14T06:35:33.382Z,45.65
2019-05-14T06:38:03.703Z,44.29
2019-05-14T06:40:34.466Z,44.70
2019-05-14T06:43:04.002Z,46.54
2019-05-14T06:45:38.233Z,46.37
2019-05-14T06:48:08.742Z,45.56
2019-05-14T06:50:52.883Z,44.44
2019-05-14T06:53:22.970Z,41.28
2019-05-14T06:55:52.873Z,41.29
2019-05-14T06:58:23.129Z,43.46
2019-05-14T07:00:54.350Z,45.12
2019-05-14T07:03:24.055Z,45.67
2019-05-14T07:05:54.305Z,43.75
2019-05-14T07:08:24.007Z,41.25
2019-05-14T07:10:59.217Z,40.62
2019-05-14T07:13:29.460Z,42.61
2019-05-14T07:16:00.647Z,41.35
2019-05-14T07:18:45.425Z,40.93
2019-05-14T07:21:02.120Z,42.22
2019-05-14T07:23:32.237Z,39.20
2019-05-14T07:26:03.354Z,41.35
2019-05-14T07:28:32.892Z,40.60
2019-05-14T07:31:02.408Z,40.99
2019-05-14T07:33:32.143Z,38.35
2019-05-14T07:36:02.601Z,39.63
2019-05-14T07:38:32.251Z,39.77
2019-05-14T07:41:02.099Z,42.51
2019-05-14T07:43:31.708Z,40.98
2019-05-14T07:46:01.422Z,37.16
2019-05-14T07:48:31.497Z,38.95
2019-05-14T07:51:01.227Z,43.05
2019-05-14T07:53:38.561Z,41.61
2019-05-14T07:56:02.401Z,43.87
2019-05-14T07:58:32.331Z,46.36
2019-05-14T08:01:01.941Z,44.71
2019-05-14T08:03:31.475Z,43.27
2019-05-14T08:06:01.214Z,42.54
2019-05-14T08:08:32.552Z,41.62
2019-05-14T08:11:02.598Z,37.78
2019-05-14T08:13:32.571Z,40.16
2019-05-14T08:16:03.050Z,39.14
2019-05-14T08:18:33.568Z,38.56
2019-05-14T08:21:04.057Z,37.30
2019-05-14T08:23:33.940Z,37.72
2019-05-14T08:26:04.148Z,38.12
2019-05-14T08:28:34.115Z,37.44
2019-05-14T08:31:19.458Z,38.39
2019-05-14T08:33:49.281Z,38.11
2019-05-14T08:36:18.857Z,34.98
2019-05-14T08:38:50.480Z,33.93
2019-05-14T08:41:20.559Z,37.86
2019-05-14T08:43:50.146Z,38.69
2019-05-14T08:46:20.172Z,41.12
2019-05-14T08:48:50.457Z,39.70
2019-05-14T08:51:21.927Z,41.34
2019-05-14T08:53:52.438Z,43.60
2019-05-14T08:56:22.584Z,43.79
2019-05-14T08:58:54.506Z,40.57
2019-05-14T09:01:24.319Z,42.19
2019-05-14T09:03:53.748Z,43.15
2019-05-14T09:06:23.292Z,43.04
2019-05-14T09:08:53.261Z,42.90
2019-05-14T09:11:26.092Z,40.15
2019-05-14T09:13:55.932Z,41.64
2019-05-14T09:16:39.514Z,41.20
2019-05-14T09:18:59.745Z,40.33
2019-05-14T09:21:29.821Z,40.43
2019-05-14T09:23:59.356Z,37.96
2019-05-14T09:26:29.532Z,37.76
2019-05-14T09:29:16.995Z,38.92
2019-05-14T09:31:32.731Z,36.38
2019-05-14T09:34:02.370Z,38.68
2019-05-14T09:36:31.761Z,36.29
2019-05-14T09:39:01.167Z,34.96
2019-05-14T09:41:31.694Z,35.28
2019-05-14T09:44:01.578Z,37.14
2019-05-14T09:46:31.353Z,38.30
2019-05-14T09:49:02.030Z,37.52
2019-05-14T09:51:38.149Z,36.45
2019-05-14T09:54:08.351Z,38.00
2019-05-14T09:56:39.374Z,39.01
2019-05-14T09:59:09.334Z,39.09
2019-05-14T10:01:40.323Z,40.09
2019-05-14T10:04:10.051Z,36.93
2019-05-14T10:06:39.754Z,35.59
2019-05-14T10:09:10.294Z,35.58
2019-05-14T10:11:41.970Z,34.15
2019-05-14T10:14:11.797Z,36.93
2019-05-14T10:16:41.130Z,35.38
2019-05-14T10:19:10.632Z,36.24
2019-05-14T10:21:39.912Z,37.40
2019-05-14T10:24:09.711Z,37.92
2019-05-14T10:26:39.562Z,37.23
2019-05-14T10:29:12.073Z,37.80
2019-05-14T10:31:41.726Z,38.52
2019-05-14T10:34:11.164Z,39.18
2019-05-14T10:36:40.441Z,38.92
2019-05-14T10:39:10.625Z,39.57
2019-05-14T10:41:40.367Z,39.98
2019-05-14T10:44:09.792Z,41.25
2019-05-14T10:46:39.991Z,38.22
2019-05-14T10:49:17.407Z,38.07
2019-05-14T10:51:50.746Z,37.77
2019-05-14T10:54:25.172Z,36.51
2019-05-14T10:56:51.442Z,36.59
2019-05-14T10:59:21.883Z,38.47
2019-05-14T11:01:52.619Z,37.65
2019-05-14T11:04:25.358Z,35.07
2019-05-14T11:06:55.154Z,34.28
2019-05-14T11:09:28.425Z,34.76
2019-05-14T11:11:58.323Z,33.46
2019-05-14T11:14:31.740Z,35.63
2019-05-14T11:16:59.875Z,35.18
2019-05-14T11:19:29.814Z,36.50
2019-05-14T11:21:59.629Z,36.87
2019-05-14T11:24:32.264Z,38.44
2019-05-14T11:27:01.870Z,39.43
2019-05-14T11:29:31.201Z,39.90
2019-05-14T11:32:00.941Z,39.32
2019-05-14T11:34:30.522Z,40.56
2019-05-14T11:37:00.416Z,41.17
2019-05-14T11:39:30.675Z,41.19
2019-05-14T11:42:00.104Z,40.22
2019-05-14T11:44:31.519Z,39.90
2019-05-14T11:47:02.722Z,40.06
2019-05-14T11:49:33.719Z,39.74
2019-05-14T11:52:08.664Z,38.94
2019-05-14T11:54:40.613Z,37.18
2019-05-14T11:57:11.567Z,37.09
2019-05-14T11:59:39.933Z,38.51
2019-05-14T12:02:09.836Z,39.15
2019-05-14T12:04:42.482Z,40.05
2019-05-14T12:07:13.300Z,43.00
2019-05-14T12:09:44.181Z,44.24
2019-05-14T12:12:19.085Z,46.25
2019-05-14T12:14:50.131Z,46.94
2019-05-14T12:17:20.294Z,46.63
2019-05-14T12:19:59.290Z,44.20
2019-05-14T12:22:28.685Z,44.45
2019-05-14T12:24:58.801Z,43.27
2019-05-14T12:27:28.748Z,41.73
2019-05-14T12:29:59.868Z,39.88
2019-05-14T12:32:29.689Z,38.71
2019-05-14T12:34:59.708Z,38.28
2019-05-14T12:37:29.277Z,38.37
2019-05-14T12:39:59.188Z,37.36
2019-05-14T12:42:29.594Z,34.84
2019-05-14T12:44:59.183Z,35.72
2019-05-14T12:47:29.147Z,34.58
2019-05-14T12:49:59.170Z,34.78
2019-05-14T12:52:29.726Z,33.67
2019-05-14T12:55:00.143Z,35.53
2019-05-14T12:57:30.186Z,35.43
2019-05-14T12:59:59.683Z,35.56
2019-05-14T13:02:29.694Z,36.82
2019-05-14T13:05:00.210Z,35.93
2019-05-14T13:07:29.763Z,34.96
2019-05-14T13:09:59.291Z,35.25
2019-05-14T13:12:29.739Z,34.80
2019-05-14T13:14:59.735Z,36.02
2019-05-14T13:17:29.119Z,37.26
2019-05-14T13:20:13.649Z,37.09
2019-05-14T13:22:55.425Z,36.41
2019-05-14T13:25:39.626Z,36.67
2019-05-14T13:28:10.828Z,37.70
2019-05-14T13:30:41.556Z,38.44
2019-05-14T13:33:10.994Z,40.17
2019-05-14T13:35:40.471Z,40.28
2019-05-14T13:38:14.318Z,39.15
2019-05-14T13:40:41.973Z,38.54
2019-05-14T13:43:14.380Z,36.91
2019-05-14T13:45:43.103Z,37.25
2019-05-14T13:48:12.501Z,37.82
2019-05-14T13:50:42.430Z,39.79
2019-05-14T13:53:12.964Z,39.38
2019-05-14T13:55:45.604Z,40.94
2019-05-14T13:58:14.308Z,40.68
2019-05-14T14:00:43.702Z,39.52
2019-05-14T14:03:13.167Z,40.42
2019-05-14T14:05:44.739Z,40.44
2019-05-14T14:08:15.545Z,39.95
2019-05-14T14:10:51.725Z,39.00
2019-05-14T14:13:19.758Z,39.09
2019-05-14T14:15:49.049Z,37.14
2019-05-14T14:18:21.019Z,37.27
2019-05-14T14:20:52.017Z,38.21
2019-05-14T14:23:27.248Z,37.73
2019-05-14T14:25:55.625Z,38.28
2019-05-14T14:28:24.966Z,39.19
2019-05-14T14:30:54.392Z,40.59
2019-05-14T14:33:23.811Z,39.84
2019-05-14T14:35:53.844Z,39.25
2019-05-14T14:38:23.864Z,39.07
2019-05-14T14:40:53.625Z,38.29
2019-05-14T14:43:23.213Z,37.83
2019-05-14T14:45:52.868Z,37.36
2019-05-14T14:48:22.948Z,37.38
2019-05-14T14:50:52.672Z,37.63
2019-05-14T14:53:41.465Z,38.13
2019-05-14T14:55:54.119Z,37.68
2019-05-14T14:58:23.731Z,37.88
2019-05-14T15:03:31.733Z,37.57
2019-05-14T15:06:01.428Z,37.41
2019-05-14T15:08:30.909Z,38.66
2019-05-14T15:11:01.411Z,39.14
2019-05-14T15:13:31.337Z,39.48
2019-05-14T15:16:01.405Z,40.20
2019-05-14T15:18:31.027Z,40.21
2019-05-14T15:21:00.583Z,40.63
2019-05-14T15:23:30.718Z,40.94
2019-05-14T15:26:01.014Z,41.56
2019-05-14T15:28:30.596Z,41.14
2019-05-14T15:31:01.074Z,40.53
2019-05-14T15:33:31.037Z,40.45
2019-05-14T15:36:00.505Z,39.44
2019-05-14T15:38:30.694Z,39.84
2019-05-14T15:41:00.432Z,39.51
2019-05-14T15:43:30.323Z,39.03
2019-05-14T15:45:59.687Z,39.10
2019-05-14T15:48:29.759Z,38.80
2019-05-14T15:51:00.090Z,39.26
2019-05-14T15:53:29.711Z,39.31
2019-05-14T15:56:00.379Z,39.25
2019-05-14T15:58:30.539Z,39.76
2019-05-14T16:01:01.282Z,39.42
2019-05-14T16:03:30.696Z,38.92
2019-05-14T16:06:01.852Z,38.93
2019-05-14T16:08:32.995Z,39.01
2019-05-14T16:11:05.512Z,39.09
2019-05-14T16:13:35.171Z,38.42
2019-05-14T16:16:04.917Z,38.54
2019-05-14T16:18:34.292Z,37.34
2019-05-14T16:21:04.396Z,37.54
2019-05-14T16:23:34.473Z,36.19
2019-05-14T16:26:10.621Z,36.60
2019-05-14T16:28:39.973Z,37.16
2019-05-14T16:31:09.639Z,36.10
2019-05-14T16:33:40.681Z,35.63
2019-05-14T16:36:11.703Z,36.45
2019-05-14T16:38:41.858Z,35.84
2019-05-14T16:41:18.979Z,36.35
2019-05-14T16:43:49.645Z,35.92
2019-05-14T16:46:20.286Z,37.11
2019-05-14T16:48:49.691Z,36.71
2019-05-14T16:51:35.648Z,36.61
2019-05-14T16:54:22.996Z,36.85
2019-05-14T16:57:11.076Z,37.08
2019-05-14T16:59:49.435Z,37.34
2019-05-14T17:02:19.081Z,36.83
2019-05-14T17:04:48.696Z,36.68
2019-05-14T17:07:18.717Z,36.58
2019-05-14T17:09:49.326Z,36.39
2019-05-14T17:12:22.558Z,36.70
2019-05-14T17:14:50.607Z,36.34
2019-05-14T17:17:20.684Z,35.78
2019-05-14T17:19:50.645Z,36.05
2019-05-14T17:22:28.482Z,35.39
2019-05-14T17:24:52.315Z,36.47
2019-05-14T17:27:22.243Z,36.46
2019-05-14T17:29:52.094Z,36.55
2019-05-14T17:32:22.054Z,36.68
2019-05-14T17:34:52.047Z,36.72
2019-05-14T17:37:21.516Z,37.34
2019-05-14T17:39:51.893Z,36.97
2019-05-14T17:42:21.830Z,35.98
2019-05-14T17:44:53.793Z,36.27
2019-05-14T17:47:24.401Z,35.89
2019-05-14T17:49:54.018Z,35.67
2019-05-14T17:52:23.664Z,35.81
2019-05-14T17:54:53.987Z,35.78
2019-05-14T17:57:25.836Z,35.51
2019-05-14T18:00:00.732Z,36.29
2019-05-14T18:02:32.035Z,36.49
2019-05-14T18:05:02.328Z,36.55
2019-05-14T18:07:32.012Z,37.33
2019-05-14T18:10:11.108Z,37.77
2019-05-14T18:12:41.490Z,37.75
2019-05-14T18:15:11.709Z,37.70
2019-05-14T18:17:41.168Z,37.66
2019-05-14T18:20:11.485Z,38.18
2019-05-14T18:22:42.634Z,38.19
2019-05-14T18:25:13.974Z,38.51
2019-05-14T18:27:44.290Z,38.78
2019-05-14T18:30:15.435Z,38.57
2019-05-14T18:32:45.543Z,38.70
2019-05-14T18:35:15.480Z,39.05
2019-05-14T18:37:48.238Z,39.09
2019-05-14T18:40:18.394Z,39.90
2019-05-14T18:42:48.365Z,39.83
2019-05-14T18:45:18.985Z,40.46
2019-05-14T18:47:48.676Z,41.20
2019-05-14T18:50:19.559Z,41.37
2019-05-14T18:52:50.072Z,41.29
2019-05-14T18:55:20.048Z,41.44
2019-05-14T18:57:49.471Z,41.70
2019-05-14T19:00:20.509Z,42.13
2019-05-14T19:02:50.307Z,42.28
2019-05-14T19:05:21.037Z,41.98
2019-05-14T19:07:51.028Z,42.28
2019-05-14T19:10:22.433Z,42.67
2019-05-14T19:12:54.743Z,42.88
2019-05-14T19:15:24.941Z,42.84
2019-05-14T19:17:57.690Z,42.95
2019-05-14T19:20:28.239Z,43.15
2019-05-14T19:23:00.225Z,43.28
2019-05-14T19:25:29.831Z,43.84
2019-05-14T19:27:59.412Z,43.91
2019-05-14T19:30:28.831Z,44.51
2019-05-14T19:32:58.755Z,45.33
2019-05-14T19:35:28.995Z,45.51
2019-05-14T19:37:59.579Z,45.72
2019-05-14T19:40:29.071Z,46.05
2019-05-14T19:42:58.801Z,46.53
2019-05-14T19:45:30.138Z,46.55
2019-05-14T19:47:59.685Z,46.75
2019-05-14T19:50:29.636Z,46.94
2019-05-14T19:52:59.964Z,47.40
2019-05-14T19:55:32.286Z,47.49
2019-05-14T19:58:02.246Z,47.82
2019-05-14T20:00:32.107Z,47.84
2019-05-14T20:03:01.629Z,48.21
2019-05-14T20:05:31.468Z,48.18
2019-05-14T20:08:00.881Z,48.25
2019-05-14T20:10:30.498Z,47.88
2019-05-14T20:13:00.512Z,47.43
2019-05-14T20:15:32.812Z,48.03
2019-05-14T20:18:02.288Z,46.99
2019-05-14T20:20:31.896Z,46.80
2019-05-14T20:23:01.839Z,46.58
2019-05-14T20:25:31.804Z,46.43
2019-05-14T20:28:01.489Z,45.99
2019-05-14T20:30:31.626Z,46.08
2019-05-14T20:33:01.732Z,46.09
2019-05-14T20:35:34.828Z,46.34
2019-05-14T20:38:02.544Z,46.55
2019-05-14T20:40:32.794Z,46.49
2019-05-14T20:43:02.785Z,46.35
2019-05-14T20:45:32.931Z,46.52
2019-05-14T20:48:03.056Z,46.63
2019-05-14T20:50:33.536Z,46.97
2019-05-14T20:53:03.383Z,47.22
2019-05-14T20:55:33.243Z,47.48
2019-05-14T20:58:02.931Z,47.93
2019-05-14T21:00:32.500Z,47.80
2019-05-14T21:03:02.136Z,47.86
2019-05-14T21:05:31.842Z,48.21
2019-05-14T21:08:01.868Z,48.40
2019-05-14T21:10:31.970Z,48.67
2019-05-14T21:13:04.145Z,48.73
2019-05-14T21:15:34.393Z,48.88
2019-05-14T21:18:07.967Z,49.14
2019-05-14T21:20:39.322Z,49.39
2019-05-14T21:23:09.857Z,49.70
2019-05-14T21:25:39.518Z,49.65
2019-05-14T21:28:09.579Z,49.89
2019-05-14T21:30:39.744Z,49.79
2019-05-14T21:33:09.607Z,50.28
2019-05-14T21:35:39.764Z,50.47
2019-05-14T21:38:09.573Z,50.74
2019-05-14T21:40:39.364Z,50.84
2019-05-14T21:43:11.285Z,51.29
2019-05-14T21:45:40.494Z,51.07
2019-05-14T21:48:10.483Z,51.49
2019-05-14T21:50:40.250Z,51.46
2019-05-14T21:53:09.747Z,52.37
2019-05-14T21:55:41.333Z,52.27
2019-05-14T21:58:11.949Z,53.01
2019-05-14T22:00:48.452Z,52.92
2019-05-14T22:03:20.742Z,53.09
2019-05-14T22:05:54.393Z,53.06
2019-05-14T22:08:23.819Z,53.56
2019-05-14T22:10:53.315Z,53.83
2019-05-14T22:13:24.784Z,54.03
2019-05-14T22:15:54.734Z,54.50
2019-05-14T22:18:24.676Z,54.93
2019-05-14T22:20:57.843Z,55.50
2019-05-14T22:23:29.282Z,56.15
2019-05-14T22:26:01.843Z,56.16
2019-05-14T22:28:34.098Z,56.55
2019-05-14T22:31:04.118Z,56.81
2019-05-14T22:33:33.750Z,56.72
2019-05-14T22:36:04.153Z,56.83
2019-05-14T22:38:33.902Z,56.67
2019-05-14T22:41:03.479Z,56.78
2019-05-14T22:43:33.951Z,56.92
2019-05-14T22:46:04.636Z,56.82
2019-05-14T22:48:34.219Z,56.85
2019-05-14T22:51:03.678Z,57.18
2019-05-14T22:53:33.728Z,57.54
2019-05-14T22:56:03.144Z,57.62
2019-05-14T22:58:33.132Z,57.66
2019-05-14T23:01:14.327Z,57.55
2019-05-14T23:07:02.293Z,58.33
2019-05-14T23:09:31.750Z,58.86
2019-05-14T23:12:01.095Z,59.69
2019-05-14T23:14:30.773Z,59.28
2019-05-14T23:17:01.136Z,59.44
2019-05-14T23:19:31.081Z,59.89
2019-05-14T23:22:04.175Z,59.91
2019-05-14T23:24:33.969Z,60.80
2019-05-14T23:27:04.301Z,60.63
2019-05-14T23:29:33.921Z,60.89
2019-05-14T23:32:03.721Z,60.64
2019-05-14T23:34:33.178Z,60.99
2019-05-14T23:37:04.869Z,60.98
2019-05-14T23:39:34.726Z,60.91
2019-05-14T23:42:04.948Z,61.04
2019-05-14T23:44:34.488Z,61.51
2019-05-14T23:47:08.246Z,61.86
2019-05-14T23:49:38.916Z,62.00
2019-05-14T23:52:09.224Z,62.78
2019-05-14T23:54:38.792Z,62.41
2019-05-14T23:57:08.884Z,62.86
2019-05-14T23:59:39.705Z,62.91
